sensor_id;sensor_type;location;lat;lon;timestamp;temperature;humidity
13585;DHT22;6863;48.402;9.994;2023-12-29T00:01:32;5.90;99.90
13585;DHT22;6863;48.402;9.994;2023-12-29T00:03:57;5.80;99.90
13585;DHT22;6863;48.402;9.994;2023-12-29T00:06:23;5.80;99.90
13585;DHT22;6863;48.402;9.994;2023-12-29T00:08:48;5.80;99.90
13585;DHT22;6863;48.402;9.994;2023-12-29T00:11:21;5.80;99.90
13585;DHT22;6863;48.402;9.994;2023-12-29T00:13:47;5.70;99.90
13585;DHT22;6863;48.402;9.994;2023-12-29T00:16:12;5.70;99.90
13585;DHT22;6863;48.402;9.994;2023-12-29T00:18:38;5.60;99.90
13585;DHT22;6863;48.402;9.994;2023-12-29T00:21:05;5.60;99.90
13585;DHT22;6863;48.402;9.994;2023-12-29T00:23:30;5.70;99.90
13585;DHT22;6863;48.402;9.994;2023-12-29T00:25:56;5.50;99.90
13585;DHT22;6863;48.402;9.994;2023-12-29T00:28:21;5.60;99.90
13585;DHT22;6863;48.402;9.994;2023-12-29T00:30:47;5.60;99.90
13585;DHT22;6863;48.402;9.994;2023-12-29T00:33:12;5.50;99.90
13585;DHT22;6863;48.402;9.994;2023-12-29T00:35:38;5.60;99.90
13585;DHT22;6863;48.402;9.994;2023-12-29T00:38:06;5.60;99.90
13585;DHT22;6863;48.402;9.994;2023-12-29T00:40:32;5.50;99.90
13585;DHT22;6863;48.402;9.994;2023-12-29T00:43:01;5.60;99.90
13585;DHT22;6863;48.402;9.994;2023-12-29T00:45:27;5.60;99.90
13585;DHT22;6863;48.402;9.994;2023-12-29T00:47:59;5.50;99.90
13585;DHT22;6863;48.402;9.994;2023-12-29T00:50:25;5.60;99.90
13585;DHT22;6863;48.402;9.994;2023-12-29T00:52:51;5.60;99.90
13585;DHT22;6863;48.402;9.994;2023-12-29T00:55:17;5.60;99.90
13585;DHT22;6863;48.402;9.994;2023-12-29T00:57:43;5.60;99.90
13585;DHT22;6863;48.402;9.994;2023-12-29T01:02:44;5.50;99.90
13585;DHT22;6863;48.402;9.994;2023-12-29T01:05:09;5.40;99.90
13585;DHT22;6863;48.402;9.994;2023-12-29T01:07:35;5.50;99.90
13585;DHT22;6863;48.402;9.994;2023-12-29T01:10:00;5.50;99.90
13585;DHT22;6863;48.402;9.994;2023-12-29T01:12:26;5.50;99.90
13585;DHT22;6863;48.402;9.994;2023-12-29T01:14:52;5.50;99.90
13585;DHT22;6863;48.402;9.994;2023-12-29T01:17:18;5.50;99.90
13585;DHT22;6863;48.402;9.994;2023-12-29T01:19:43;5.40;99.90
13585;DHT22;6863;48.402;9.994;2023-12-29T01:22:09;5.40;99.90
13585;DHT22;6863;48.402;9.994;2023-12-29T01:24:34;5.40;99.90
13585;DHT22;6863;48.402;9.994;2023-12-29T01:27:00;5.20;99.90
13585;DHT22;6863;48.402;9.994;2023-12-29T01:29:25;5.10;99.90
13585;DHT22;6863;48.402;9.994;2023-12-29T01:31:51;5.10;99.90
13585;DHT22;6863;48.402;9.994;2023-12-29T01:34:16;5.30;99.90
13585;DHT22;6863;48.402;9.994;2023-12-29T01:36:42;5.40;99.90
13585;DHT22;6863;48.402;9.994;2023-12-29T01:39:07;5.40;99.90
13585;DHT22;6863;48.402;9.994;2023-12-29T01:41:33;5.50;99.90
13585;DHT22;6863;48.402;9.994;2023-12-29T01:46:33;5.30;99.90
13585;DHT22;6863;48.402;9.994;2023-12-29T01:49:00;5.30;99.90
13585;DHT22;6863;48.402;9.994;2023-12-29T01:51:27;5.30;99.90
13585;DHT22;6863;48.402;9.994;2023-12-29T01:53:55;5.30;99.90
13585;DHT22;6863;48.402;9.994;2023-12-29T01:56:22;5.30;99.90
13585;DHT22;6863;48.402;9.994;2023-12-29T01:58:51;5.30;99.90
13585;DHT22;6863;48.402;9.994;2023-12-29T02:01:18;5.40;99.90
13585;DHT22;6863;48.402;9.994;2023-12-29T02:03:44;5.40;99.90
13585;DHT22;6863;48.402;9.994;2023-12-29T02:06:10;5.40;99.90
13585;DHT22;6863;48.402;9.994;2023-12-29T02:08:37;5.40;99.90
13585;DHT22;6863;48.402;9.994;2023-12-29T02:11:04;5.50;99.90
13585;DHT22;6863;48.402;9.994;2023-12-29T02:13:30;5.50;99.90
13585;DHT22;6863;48.402;9.994;2023-12-29T02:16:01;5.50;99.90
13585;DHT22;6863;48.402;9.994;2023-12-29T02:18:30;5.60;99.90
13585;DHT22;6863;48.402;9.994;2023-12-29T02:20:58;5.60;99.90
13585;DHT22;6863;48.402;9.994;2023-12-29T02:23:23;5.80;99.90
13585;DHT22;6863;48.402;9.994;2023-12-29T02:25:50;5.90;99.90
13585;DHT22;6863;48.402;9.994;2023-12-29T02:28:26;5.90;99.90
13585;DHT22;6863;48.402;9.994;2023-12-29T02:31:04;6.00;99.90
13585;DHT22;6863;48.402;9.994;2023-12-29T02:33:33;6.10;99.90
13585;DHT22;6863;48.402;9.994;2023-12-29T02:36:03;6.10;99.90
13585;DHT22;6863;48.402;9.994;2023-12-29T02:38:29;6.20;99.90
13585;DHT22;6863;48.402;9.994;2023-12-29T02:40:56;6.20;99.90
13585;DHT22;6863;48.402;9.994;2023-12-29T02:43:22;6.30;99.90
13585;DHT22;6863;48.402;9.994;2023-12-29T02:45:47;6.30;99.90
13585;DHT22;6863;48.402;9.994;2023-12-29T02:48:13;6.30;99.90
13585;DHT22;6863;48.402;9.994;2023-12-29T02:50:39;6.20;99.90
13585;DHT22;6863;48.402;9.994;2023-12-29T02:53:04;6.10;99.90
13585;DHT22;6863;48.402;9.994;2023-12-29T02:55:30;6.00;99.90
13585;DHT22;6863;48.402;9.994;2023-12-29T02:57:56;5.90;99.90
13585;DHT22;6863;48.402;9.994;2023-12-29T03:00:21;5.80;99.90
13585;DHT22;6863;48.402;9.994;2023-12-29T03:02:47;5.70;99.90
13585;DHT22;6863;48.402;9.994;2023-12-29T03:05:13;5.50;99.90
13585;DHT22;6863;48.402;9.994;2023-12-29T03:07:39;5.50;99.90
13585;DHT22;6863;48.402;9.994;2023-12-29T03:10:06;5.40;99.90
13585;DHT22;6863;48.402;9.994;2023-12-29T03:12:32;5.50;99.90
13585;DHT22;6863;48.402;9.994;2023-12-29T03:14:58;5.50;99.90
13585;DHT22;6863;48.402;9.994;2023-12-29T03:17:23;5.50;99.90
13585;DHT22;6863;48.402;9.994;2023-12-29T03:19:49;5.40;99.90
13585;DHT22;6863;48.402;9.994;2023-12-29T03:22:14;5.40;99.90
13585;DHT22;6863;48.402;9.994;2023-12-29T03:24:41;5.30;99.90
13585;DHT22;6863;48.402;9.994;2023-12-29T03:27:07;5.20;99.90
13585;DHT22;6863;48.402;9.994;2023-12-29T03:29:33;5.00;99.90
13585;DHT22;6863;48.402;9.994;2023-12-29T03:31:58;5.00;99.90
13585;DHT22;6863;48.402;9.994;2023-12-29T03:34:24;5.00;99.90
13585;DHT22;6863;48.402;9.994;2023-12-29T03:36:50;5.10;99.90
13585;DHT22;6863;48.402;9.994;2023-12-29T03:39:15;5.00;99.90
13585;DHT22;6863;48.402;9.994;2023-12-29T03:41:41;5.00;99.90
13585;DHT22;6863;48.402;9.994;2023-12-29T03:44:06;5.00;99.90
13585;DHT22;6863;48.402;9.994;2023-12-29T03:46:32;5.00;99.90
13585;DHT22;6863;48.402;9.994;2023-12-29T03:48:58;4.90;99.90
13585;DHT22;6863;48.402;9.994;2023-12-29T03:51:23;4.90;99.90
13585;DHT22;6863;48.402;9.994;2023-12-29T03:53:49;4.90;99.90
13585;DHT22;6863;48.402;9.994;2023-12-29T03:56:16;4.90;99.90
13585;DHT22;6863;48.402;9.994;2023-12-29T03:58:46;4.80;99.90
13585;DHT22;6863;48.402;9.994;2023-12-29T04:01:13;4.90;99.90
13585;DHT22;6863;48.402;9.994;2023-12-29T04:03:38;4.80;99.90
13585;DHT22;6863;48.402;9.994;2023-12-29T04:06:04;4.80;99.90
13585;DHT22;6863;48.402;9.994;2023-12-29T04:08:30;4.80;99.90
13585;DHT22;6863;48.402;9.994;2023-12-29T04:10:56;4.90;99.90
13585;DHT22;6863;48.402;9.994;2023-12-29T04:13:22;4.90;99.90
13585;DHT22;6863;48.402;9.994;2023-12-29T04:15:48;4.90;99.90
13585;DHT22;6863;48.402;9.994;2023-12-29T04:18:13;4.90;99.90
13585;DHT22;6863;48.402;9.994;2023-12-29T04:20:39;4.90;99.90
13585;DHT22;6863;48.402;9.994;2023-12-29T04:23:06;4.90;99.90
13585;DHT22;6863;48.402;9.994;2023-12-29T04:25:33;5.00;99.90
13585;DHT22;6863;48.402;9.994;2023-12-29T04:27:59;4.90;99.90
13585;DHT22;6863;48.402;9.994;2023-12-29T04:30:25;4.90;99.90
13585;DHT22;6863;48.402;9.994;2023-12-29T04:32:50;4.90;99.90
13585;DHT22;6863;48.402;9.994;2023-12-29T04:35:16;4.70;99.90
13585;DHT22;6863;48.402;9.994;2023-12-29T04:37:44;4.70;99.90
13585;DHT22;6863;48.402;9.994;2023-12-29T04:40:11;4.60;99.90
13585;DHT22;6863;48.402;9.994;2023-12-29T04:42:37;4.50;99.90
13585;DHT22;6863;48.402;9.994;2023-12-29T04:45:04;4.40;99.90
13585;DHT22;6863;48.402;9.994;2023-12-29T04:47:29;4.40;99.90
13585;DHT22;6863;48.402;9.994;2023-12-29T04:49:55;4.50;99.90
13585;DHT22;6863;48.402;9.994;2023-12-29T04:52:21;4.60;99.90
13585;DHT22;6863;48.402;9.994;2023-12-29T04:54:46;4.70;99.90
13585;DHT22;6863;48.402;9.994;2023-12-29T04:57:12;4.80;99.90
13585;DHT22;6863;48.402;9.994;2023-12-29T04:59:38;4.90;99.90
13585;DHT22;6863;48.402;9.994;2023-12-29T05:02:03;5.00;99.90
13585;DHT22;6863;48.402;9.994;2023-12-29T05:04:29;5.00;99.90
13585;DHT22;6863;48.402;9.994;2023-12-29T05:06:54;5.10;99.90
13585;DHT22;6863;48.402;9.994;2023-12-29T05:09:20;5.20;99.90
13585;DHT22;6863;48.402;9.994;2023-12-29T05:11:46;5.30;99.90
13585;DHT22;6863;48.402;9.994;2023-12-29T05:14:11;5.30;99.90
13585;DHT22;6863;48.402;9.994;2023-12-29T05:16:37;5.30;99.90
13585;DHT22;6863;48.402;9.994;2023-12-29T05:19:05;5.30;99.90
13585;DHT22;6863;48.402;9.994;2023-12-29T05:21:31;5.30;99.90
13585;DHT22;6863;48.402;9.994;2023-12-29T05:23:57;5.20;99.90
13585;DHT22;6863;48.402;9.994;2023-12-29T05:26:22;5.10;99.90
13585;DHT22;6863;48.402;9.994;2023-12-29T05:28:48;5.10;99.90
13585;DHT22;6863;48.402;9.994;2023-12-29T05:31:13;5.10;99.90
13585;DHT22;6863;48.402;9.994;2023-12-29T05:33:39;5.20;99.90
13585;DHT22;6863;48.402;9.994;2023-12-29T05:36:09;5.30;99.90
13585;DHT22;6863;48.402;9.994;2023-12-29T05:38:35;5.30;99.90
13585;DHT22;6863;48.402;9.994;2023-12-29T05:41:02;5.40;99.90
13585;DHT22;6863;48.402;9.994;2023-12-29T05:43:31;5.20;99.90
13585;DHT22;6863;48.402;9.994;2023-12-29T05:45:57;5.10;99.90
13585;DHT22;6863;48.402;9.994;2023-12-29T05:48:23;5.00;99.90
13585;DHT22;6863;48.402;9.994;2023-12-29T05:50:52;4.90;99.90
13585;DHT22;6863;48.402;9.994;2023-12-29T05:53:18;4.80;99.90
13585;DHT22;6863;48.402;9.994;2023-12-29T05:55:44;4.80;99.90
13585;DHT22;6863;48.402;9.994;2023-12-29T05:58:11;4.70;99.90
13585;DHT22;6863;48.402;9.994;2023-12-29T06:00:37;4.80;99.90
13585;DHT22;6863;48.402;9.994;2023-12-29T06:03:03;4.90;99.90
13585;DHT22;6863;48.402;9.994;2023-12-29T06:05:32;4.80;99.90
13585;DHT22;6863;48.402;9.994;2023-12-29T06:07:58;4.80;99.90
13585;DHT22;6863;48.402;9.994;2023-12-29T06:10:23;4.70;99.90
13585;DHT22;6863;48.402;9.994;2023-12-29T06:12:49;4.60;99.90
13585;DHT22;6863;48.402;9.994;2023-12-29T06:15:14;4.50;99.90
13585;DHT22;6863;48.402;9.994;2023-12-29T06:17:40;4.50;99.90
13585;DHT22;6863;48.402;9.994;2023-12-29T06:20:08;4.50;99.90
13585;DHT22;6863;48.402;9.994;2023-12-29T06:22:39;4.50;99.90
13585;DHT22;6863;48.402;9.994;2023-12-29T06:25:10;4.60;99.90
13585;DHT22;6863;48.402;9.994;2023-12-29T06:27:36;4.60;99.90
13585;DHT22;6863;48.402;9.994;2023-12-29T06:30:06;4.60;99.90
13585;DHT22;6863;48.402;9.994;2023-12-29T06:32:32;4.60;99.90
13585;DHT22;6863;48.402;9.994;2023-12-29T06:34:58;4.60;99.90
13585;DHT22;6863;48.402;9.994;2023-12-29T06:37:23;4.70;99.90
13585;DHT22;6863;48.402;9.994;2023-12-29T06:39:49;4.80;99.90
13585;DHT22;6863;48.402;9.994;2023-12-29T06:42:15;4.90;99.90
13585;DHT22;6863;48.402;9.994;2023-12-29T06:44:40;5.10;99.90
13585;DHT22;6863;48.402;9.994;2023-12-29T06:47:06;5.20;99.90
13585;DHT22;6863;48.402;9.994;2023-12-29T06:49:34;5.30;99.90
13585;DHT22;6863;48.402;9.994;2023-12-29T06:52:00;5.50;99.90
13585;DHT22;6863;48.402;9.994;2023-12-29T06:54:25;5.50;99.90
13585;DHT22;6863;48.402;9.994;2023-12-29T06:56:51;5.50;99.90
13585;DHT22;6863;48.402;9.994;2023-12-29T06:59:16;5.60;99.90
13585;DHT22;6863;48.402;9.994;2023-12-29T07:01:44;5.60;99.90
13585;DHT22;6863;48.402;9.994;2023-12-29T07:04:09;5.70;99.90
13585;DHT22;6863;48.402;9.994;2023-12-29T07:06:36;5.70;99.90
13585;DHT22;6863;48.402;9.994;2023-12-29T07:09:02;5.60;99.90
13585;DHT22;6863;48.402;9.994;2023-12-29T07:11:28;5.50;99.90
13585;DHT22;6863;48.402;9.994;2023-12-29T07:13:54;5.40;99.90
13585;DHT22;6863;48.402;9.994;2023-12-29T07:16:20;5.30;99.90
13585;DHT22;6863;48.402;9.994;2023-12-29T07:18:46;5.20;99.90
13585;DHT22;6863;48.402;9.994;2023-12-29T07:21:12;5.30;99.90
13585;DHT22;6863;48.402;9.994;2023-12-29T07:23:38;5.20;99.90
13585;DHT22;6863;48.402;9.994;2023-12-29T07:26:04;5.20;99.90
13585;DHT22;6863;48.402;9.994;2023-12-29T07:28:31;5.20;99.90
13585;DHT22;6863;48.402;9.994;2023-12-29T07:30:57;5.20;99.90
13585;DHT22;6863;48.402;9.994;2023-12-29T07:33:22;5.20;99.90
13585;DHT22;6863;48.402;9.994;2023-12-29T07:35:49;5.20;99.90
13585;DHT22;6863;48.402;9.994;2023-12-29T07:38:15;5.20;99.90
13585;DHT22;6863;48.402;9.994;2023-12-29T07:40:41;5.20;99.90
13585;DHT22;6863;48.402;9.994;2023-12-29T07:43:07;5.20;99.90
13585;DHT22;6863;48.402;9.994;2023-12-29T07:45:32;5.20;99.90
13585;DHT22;6863;48.402;9.994;2023-12-29T07:47:58;5.30;99.90
13585;DHT22;6863;48.402;9.994;2023-12-29T07:50:24;5.30;99.90
13585;DHT22;6863;48.402;9.994;2023-12-29T07:52:49;5.30;99.90
13585;DHT22;6863;48.402;9.994;2023-12-29T07:55:15;5.40;99.90
13585;DHT22;6863;48.402;9.994;2023-12-29T07:57:43;5.60;99.90
13585;DHT22;6863;48.402;9.994;2023-12-29T08:02:34;6.50;99.90
13585;DHT22;6863;48.402;9.994;2023-12-29T08:05:01;7.20;99.90
13585;DHT22;6863;48.402;9.994;2023-12-29T08:07:27;7.90;99.90
13585;DHT22;6863;48.402;9.994;2023-12-29T08:09:52;8.70;99.90
13585;DHT22;6863;48.402;9.994;2023-12-29T08:12:18;9.10;99.90
13585;DHT22;6863;48.402;9.994;2023-12-29T08:14:43;9.50;99.90
13585;DHT22;6863;48.402;9.994;2023-12-29T08:17:09;9.30;99.90
13585;DHT22;6863;48.402;9.994;2023-12-29T08:19:35;9.90;99.90
13585;DHT22;6863;48.402;9.994;2023-12-29T08:22:01;10.70;98.70
13585;DHT22;6863;48.402;9.994;2023-12-29T08:24:27;11.20;97.70
13585;DHT22;6863;48.402;9.994;2023-12-29T08:26:52;10.90;97.10
13585;DHT22;6863;48.402;9.994;2023-12-29T08:29:18;10.20;97.80
13585;DHT22;6863;48.402;9.994;2023-12-29T08:31:45;10.30;98.50
13585;DHT22;6863;48.402;9.994;2023-12-29T08:34:11;10.50;97.70
13585;DHT22;6863;48.402;9.994;2023-12-29T08:36:37;10.00;97.80
13585;DHT22;6863;48.402;9.994;2023-12-29T08:39:03;9.20;99.80
13585;DHT22;6863;48.402;9.994;2023-12-29T08:41:28;8.70;99.90
13585;DHT22;6863;48.402;9.994;2023-12-29T08:43:54;8.40;99.90
13585;DHT22;6863;48.402;9.994;2023-12-29T08:46:19;8.20;99.90
13585;DHT22;6863;48.402;9.994;2023-12-29T08:48:46;8.10;99.90
13585;DHT22;6863;48.402;9.994;2023-12-29T08:51:11;7.80;99.90
13585;DHT22;6863;48.402;9.994;2023-12-29T08:53:37;7.60;99.90
13585;DHT22;6863;48.402;9.994;2023-12-29T08:56:03;7.50;99.90
13585;DHT22;6863;48.402;9.994;2023-12-29T08:58:29;7.60;99.90
13585;DHT22;6863;48.402;9.994;2023-12-29T09:00:55;9.20;99.90
13585;DHT22;6863;48.402;9.994;2023-12-29T09:03:24;11.00;99.90
13585;DHT22;6863;48.402;9.994;2023-12-29T09:05:49;12.20;97.50
13585;DHT22;6863;48.402;9.994;2023-12-29T09:08:15;11.80;95.90
13585;DHT22;6863;48.402;9.994;2023-12-29T09:10:40;11.10;96.50
13585;DHT22;6863;48.402;9.994;2023-12-29T09:13:06;10.40;97.60
13585;DHT22;6863;48.402;9.994;2023-12-29T09:15:32;10.10;98.70
13585;DHT22;6863;48.402;9.994;2023-12-29T09:17:57;9.70;99.90
13585;DHT22;6863;48.402;9.994;2023-12-29T09:20:23;9.30;99.90
13585;DHT22;6863;48.402;9.994;2023-12-29T09:22:48;9.30;99.90
13585;DHT22;6863;48.402;9.994;2023-12-29T09:25:14;9.30;99.90
13585;DHT22;6863;48.402;9.994;2023-12-29T09:27:40;9.10;99.90
13585;DHT22;6863;48.402;9.994;2023-12-29T09:30:06;8.80;99.90
13585;DHT22;6863;48.402;9.994;2023-12-29T09:32:32;8.90;99.90
13585;DHT22;6863;48.402;9.994;2023-12-29T09:34:57;8.80;99.90
13585;DHT22;6863;48.402;9.994;2023-12-29T09:37:23;8.70;99.90
13585;DHT22;6863;48.402;9.994;2023-12-29T09:39:49;8.70;99.90
13585;DHT22;6863;48.402;9.994;2023-12-29T09:42:20;8.80;99.90
13585;DHT22;6863;48.402;9.994;2023-12-29T09:44:50;8.70;99.90
13585;DHT22;6863;48.402;9.994;2023-12-29T09:47:22;8.90;99.90
13585;DHT22;6863;48.402;9.994;2023-12-29T09:49:49;9.10;99.90
13585;DHT22;6863;48.402;9.994;2023-12-29T09:52:15;9.70;99.90
13585;DHT22;6863;48.402;9.994;2023-12-29T09:54:42;11.50;99.90
13585;DHT22;6863;48.402;9.994;2023-12-29T09:57:08;11.80;98.40
13585;DHT22;6863;48.402;9.994;2023-12-29T09:59:35;12.70;97.70
13585;DHT22;6863;48.402;9.994;2023-12-29T10:02:12;12.80;96.30
13585;DHT22;6863;48.402;9.994;2023-12-29T10:04:39;12.10;97.20
13585;DHT22;6863;48.402;9.994;2023-12-29T10:07:06;12.00;97.50
13585;DHT22;6863;48.402;9.994;2023-12-29T10:09:33;11.30;98.00
13585;DHT22;6863;48.402;9.994;2023-12-29T10:12:02;11.30;98.40
13585;DHT22;6863;48.402;9.994;2023-12-29T10:14:37;10.90;99.30
13585;DHT22;6863;48.402;9.994;2023-12-29T10:17:11;11.20;99.50
13585;DHT22;6863;48.402;9.994;2023-12-29T10:19:43;11.30;98.60
13585;DHT22;6863;48.402;9.994;2023-12-29T10:22:14;10.80;99.50
13585;DHT22;6863;48.402;9.994;2023-12-29T10:24:41;10.30;99.90
13585;DHT22;6863;48.402;9.994;2023-12-29T10:27:09;10.10;99.90
13585;DHT22;6863;48.402;9.994;2023-12-29T10:29:34;9.80;99.90
13585;DHT22;6863;48.402;9.994;2023-12-29T10:32:00;9.60;99.90
13585;DHT22;6863;48.402;9.994;2023-12-29T10:34:26;9.40;99.90
13585;DHT22;6863;48.402;9.994;2023-12-29T10:36:55;9.50;99.90
13585;DHT22;6863;48.402;9.994;2023-12-29T10:39:21;9.40;99.90
13585;DHT22;6863;48.402;9.994;2023-12-29T10:41:47;9.30;99.90
13585;DHT22;6863;48.402;9.994;2023-12-29T10:44:13;9.20;99.90
13585;DHT22;6863;48.402;9.994;2023-12-29T10:46:38;9.80;99.90
13585;DHT22;6863;48.402;9.994;2023-12-29T10:49:12;11.90;99.90
13585;DHT22;6863;48.402;9.994;2023-12-29T10:51:38;13.40;97.30
13585;DHT22;6863;48.402;9.994;2023-12-29T10:54:04;13.50;95.60
13585;DHT22;6863;48.402;9.994;2023-12-29T10:56:31;13.40;95.70
13585;DHT22;6863;48.402;9.994;2023-12-29T10:59:06;14.30;94.90
13585;DHT22;6863;48.402;9.994;2023-12-29T11:01:35;14.50;94.00
13585;DHT22;6863;48.402;9.994;2023-12-29T11:04:03;14.60;93.50
13585;DHT22;6863;48.402;9.994;2023-12-29T11:06:29;14.70;92.70
13585;DHT22;6863;48.402;9.994;2023-12-29T11:08:56;14.30;93.50
13585;DHT22;6863;48.402;9.994;2023-12-29T11:11:22;14.30;93.50
13585;DHT22;6863;48.402;9.994;2023-12-29T11:13:48;14.00;93.70
13585;DHT22;6863;48.402;9.994;2023-12-29T11:16:14;13.60;94.20
13585;DHT22;6863;48.402;9.994;2023-12-29T11:18:43;13.00;95.30
13585;DHT22;6863;48.402;9.994;2023-12-29T11:21:10;12.30;95.90
13585;DHT22;6863;48.402;9.994;2023-12-29T11:23:36;11.90;96.80
13585;DHT22;6863;48.402;9.994;2023-12-29T11:26:02;11.60;97.60
13585;DHT22;6863;48.402;9.994;2023-12-29T11:28:28;11.80;97.50
13585;DHT22;6863;48.402;9.994;2023-12-29T11:30:54;11.90;97.40
13585;DHT22;6863;48.402;9.994;2023-12-29T11:33:30;11.80;97.30
13585;DHT22;6863;48.402;9.994;2023-12-29T11:36:23;11.70;97.50
13585;DHT22;6863;48.402;9.994;2023-12-29T11:39:06;11.40;98.00
13585;DHT22;6863;48.402;9.994;2023-12-29T11:44:04;10.70;99.40
13585;DHT22;6863;48.402;9.994;2023-12-29T11:48:59;10.30;99.90
13585;DHT22;6863;48.402;9.994;2023-12-29T11:51:51;10.10;99.90
13585;DHT22;6863;48.402;9.994;2023-12-29T11:54:24;10.00;99.90
13585;DHT22;6863;48.402;9.994;2023-12-29T11:56:51;9.90;99.90
13585;DHT22;6863;48.402;9.994;2023-12-29T11:59:18;10.00;99.90
13585;DHT22;6863;48.402;9.994;2023-12-29T12:01:58;10.00;99.90
13585;DHT22;6863;48.402;9.994;2023-12-29T12:04:42;10.00;99.90
13585;DHT22;6863;48.402;9.994;2023-12-29T12:09:47;10.10;99.90
13585;DHT22;6863;48.402;9.994;2023-12-29T12:12:41;10.20;99.90
13585;DHT22;6863;48.402;9.994;2023-12-29T12:17:59;10.40;99.90
13585;DHT22;6863;48.402;9.994;2023-12-29T12:20:26;10.80;99.90
13585;DHT22;6863;48.402;9.994;2023-12-29T12:22:59;11.60;99.90
13585;DHT22;6863;48.402;9.994;2023-12-29T12:25:30;12.40;98.50
13585;DHT22;6863;48.402;9.994;2023-12-29T12:27:59;12.40;97.80
13585;DHT22;6863;48.402;9.994;2023-12-29T12:30:24;12.00;97.90
13585;DHT22;6863;48.402;9.994;2023-12-29T12:33:02;11.90;98.20
13585;DHT22;6863;48.402;9.994;2023-12-29T12:35:31;11.80;98.30
13585;DHT22;6863;48.402;9.994;2023-12-29T12:38:16;11.60;98.70
13585;DHT22;6863;48.402;9.994;2023-12-29T12:40:47;11.20;99.50
13585;DHT22;6863;48.402;9.994;2023-12-29T12:43:17;11.00;99.70
13585;DHT22;6863;48.402;9.994;2023-12-29T12:45:54;11.00;99.90
13585;DHT22;6863;48.402;9.994;2023-12-29T12:48:43;11.10;99.80
13585;DHT22;6863;48.402;9.994;2023-12-29T12:51:10;11.20;99.80
13585;DHT22;6863;48.402;9.994;2023-12-29T12:53:42;11.00;99.90
13585;DHT22;6863;48.402;9.994;2023-12-29T12:56:10;11.00;99.90
13585;DHT22;6863;48.402;9.994;2023-12-29T12:58:36;10.90;99.90
13585;DHT22;6863;48.402;9.994;2023-12-29T13:01:02;10.90;99.90
13585;DHT22;6863;48.402;9.994;2023-12-29T13:03:29;11.00;99.90
13585;DHT22;6863;48.402;9.994;2023-12-29T13:05:57;10.90;99.90
13585;DHT22;6863;48.402;9.994;2023-12-29T13:08:23;10.70;99.90
13585;DHT22;6863;48.402;9.994;2023-12-29T13:10:51;10.80;99.90
13585;DHT22;6863;48.402;9.994;2023-12-29T13:13:16;10.70;99.90
13585;DHT22;6863;48.402;9.994;2023-12-29T13:15:51;10.60;99.90
13585;DHT22;6863;48.402;9.994;2023-12-29T13:18:17;10.50;99.90
13585;DHT22;6863;48.402;9.994;2023-12-29T13:20:44;10.60;99.90
13585;DHT22;6863;48.402;9.994;2023-12-29T13:23:10;10.70;99.90
13585;DHT22;6863;48.402;9.994;2023-12-29T13:25:36;10.70;99.90
13585;DHT22;6863;48.402;9.994;2023-12-29T13:28:04;10.80;99.90
13585;DHT22;6863;48.402;9.994;2023-12-29T13:30:30;10.70;99.90
13585;DHT22;6863;48.402;9.994;2023-12-29T13:32:56;10.70;99.90
13585;DHT22;6863;48.402;9.994;2023-12-29T13:35:23;10.60;99.90
13585;DHT22;6863;48.402;9.994;2023-12-29T13:37:52;10.50;99.90
13585;DHT22;6863;48.402;9.994;2023-12-29T13:40:37;10.50;99.90
13585;DHT22;6863;48.402;9.994;2023-12-29T13:43:08;10.40;99.90
13585;DHT22;6863;48.402;9.994;2023-12-29T13:45:36;10.40;99.90
13585;DHT22;6863;48.402;9.994;2023-12-29T13:48:05;10.40;99.90
13585;DHT22;6863;48.402;9.994;2023-12-29T13:50:32;10.40;99.90
13585;DHT22;6863;48.402;9.994;2023-12-29T13:52:58;10.30;99.90
13585;DHT22;6863;48.402;9.994;2023-12-29T13:55:24;10.30;99.90
13585;DHT22;6863;48.402;9.994;2023-12-29T13:57:51;10.30;99.90
13585;DHT22;6863;48.402;9.994;2023-12-29T14:03:27;10.20;99.90
13585;DHT22;6863;48.402;9.994;2023-12-29T14:05:59;10.10;99.90
13585;DHT22;6863;48.402;9.994;2023-12-29T14:08:28;10.10;99.90
13585;DHT22;6863;48.402;9.994;2023-12-29T14:10:56;10.10;99.90
13585;DHT22;6863;48.402;9.994;2023-12-29T14:13:22;10.10;99.90
13585;DHT22;6863;48.402;9.994;2023-12-29T14:15:47;10.10;99.90
13585;DHT22;6863;48.402;9.994;2023-12-29T14:24:15;10.00;99.90
13585;DHT22;6863;48.402;9.994;2023-12-29T14:26:54;9.90;99.90
13585;DHT22;6863;48.402;9.994;2023-12-29T14:29:45;9.90;99.90
13585;DHT22;6863;48.402;9.994;2023-12-29T14:32:17;10.00;99.90
13585;DHT22;6863;48.402;9.994;2023-12-29T14:35:12;9.90;99.90
13585;DHT22;6863;48.402;9.994;2023-12-29T14:37:47;9.80;99.90
13585;DHT22;6863;48.402;9.994;2023-12-29T14:40:35;9.80;99.90
13585;DHT22;6863;48.402;9.994;2023-12-29T14:43:12;9.80;99.90
13585;DHT22;6863;48.402;9.994;2023-12-29T14:45:40;9.70;99.90
13585;DHT22;6863;48.402;9.994;2023-12-29T14:48:14;9.80;99.90
13585;DHT22;6863;48.402;9.994;2023-12-29T14:51:01;9.90;99.90
13585;DHT22;6863;48.402;9.994;2023-12-29T14:53:35;9.80;99.90
13585;DHT22;6863;48.402;9.994;2023-12-29T14:56:10;9.80;99.90
13585;DHT22;6863;48.402;9.994;2023-12-29T14:58:48;9.70;99.90
13585;DHT22;6863;48.402;9.994;2023-12-29T15:01:27;9.70;99.90
13585;DHT22;6863;48.402;9.994;2023-12-29T15:06:57;9.60;99.90
13585;DHT22;6863;48.402;9.994;2023-12-29T15:09:32;9.50;99.90
13585;DHT22;6863;48.402;9.994;2023-12-29T15:12:01;9.40;99.90
13585;DHT22;6863;48.402;9.994;2023-12-29T15:15:09;9.40;99.90
13585;DHT22;6863;48.402;9.994;2023-12-29T15:17:43;9.40;99.90
13585;DHT22;6863;48.402;9.994;2023-12-29T15:20:30;9.40;99.90
13585;DHT22;6863;48.402;9.994;2023-12-29T15:23:07;9.30;99.90
13585;DHT22;6863;48.402;9.994;2023-12-29T15:25:48;9.30;99.90
13585;DHT22;6863;48.402;9.994;2023-12-29T15:28:23;9.20;99.90
13585;DHT22;6863;48.402;9.994;2023-12-29T15:30:54;9.20;99.90
13585;DHT22;6863;48.402;9.994;2023-12-29T15:33:28;9.20;99.90
13585;DHT22;6863;48.402;9.994;2023-12-29T15:35:59;9.10;99.90
13585;DHT22;6863;48.402;9.994;2023-12-29T15:38:31;9.10;99.90
13585;DHT22;6863;48.402;9.994;2023-12-29T15:41:05;9.10;99.90
13585;DHT22;6863;48.402;9.994;2023-12-29T15:43:31;9.00;99.90
13585;DHT22;6863;48.402;9.994;2023-12-29T15:46:03;9.00;99.90
13585;DHT22;6863;48.402;9.994;2023-12-29T15:48:31;8.90;99.90
13585;DHT22;6863;48.402;9.994;2023-12-29T15:51:06;8.90;99.90
13585;DHT22;6863;48.402;9.994;2023-12-29T15:53:35;8.90;99.90
13585;DHT22;6863;48.402;9.994;2023-12-29T15:56:17;9.00;99.90
13585;DHT22;6863;48.402;9.994;2023-12-29T15:58:52;9.00;99.90
13585;DHT22;6863;48.402;9.994;2023-12-29T16:01:31;9.00;99.90
13585;DHT22;6863;48.402;9.994;2023-12-29T16:03:58;8.90;99.90
13585;DHT22;6863;48.402;9.994;2023-12-29T16:06:38;8.90;99.90
13585;DHT22;6863;48.402;9.994;2023-12-29T16:09:09;8.90;99.90
13585;DHT22;6863;48.402;9.994;2023-12-29T16:11:36;8.90;99.90
13585;DHT22;6863;48.402;9.994;2023-12-29T16:14:13;9.00;99.90
13585;DHT22;6863;48.402;9.994;2023-12-29T16:16:42;9.00;99.90
13585;DHT22;6863;48.402;9.994;2023-12-29T16:19:11;8.90;99.90
13585;DHT22;6863;48.402;9.994;2023-12-29T16:21:37;8.80;99.90
13585;DHT22;6863;48.402;9.994;2023-12-29T16:24:16;8.80;99.90
13585;DHT22;6863;48.402;9.994;2023-12-29T16:26:54;8.80;99.90
13585;DHT22;6863;48.402;9.994;2023-12-29T16:29:23;8.80;99.90
13585;DHT22;6863;48.402;9.994;2023-12-29T16:31:51;8.80;99.90
13585;DHT22;6863;48.402;9.994;2023-12-29T16:34:30;8.70;99.90